sensor_id;sensor_type;location;lat;lon;timestamp;temperature;humidity
71514;DHT22;59335;46.652;21.272;2023-05-10T00:01:36;22.27;43.25
71514;DHT22;59335;46.652;21.272;2023-05-10T00:04:39;22.29;43.23
71514;DHT22;59335;46.652;21.272;2023-05-10T00:07:41;22.34;43.16
71514;DHT22;59335;46.652;21.272;2023-05-10T00:10:47;22.27;43.18
71514;DHT22;59335;46.652;21.272;2023-05-10T00:13:49;22.29;43.23
71514;DHT22;59335;46.652;21.272;2023-05-10T00:16:52;22.29;43.21
71514;DHT22;59335;46.652;21.272;2023-05-10T00:19:55;22.27;43.21
71514;DHT22;59335;46.652;21.272;2023-05-10T00:22:58;22.29;43.18
71514;DHT22;59335;46.652;21.272;2023-05-10T00:26:00;22.29;43.14
71514;DHT22;59335;46.652;21.272;2023-05-10T00:29:03;22.27;43.22
71514;DHT22;59335;46.652;21.272;2023-05-10T00:32:06;22.32;43.09
71514;DHT22;59335;46.652;21.272;2023-05-10T00:35:09;22.30;43.08
71514;DHT22;59335;46.652;21.272;2023-05-10T00:38:12;22.27;43.14
71514;DHT22;59335;46.652;21.272;2023-05-10T00:41:15;22.26;43.09
71514;DHT22;59335;46.652;21.272;2023-05-10T00:44:20;22.26;43.12
71514;DHT22;59335;46.652;21.272;2023-05-10T00:47:23;22.27;43.11
71514;DHT22;59335;46.652;21.272;2023-05-10T00:50:26;22.26;43.09
71514;DHT22;59335;46.652;21.272;2023-05-10T00:53:31;22.24;43.07
71514;DHT22;59335;46.652;21.272;2023-05-10T00:56:34;22.24;43.10
71514;DHT22;59335;46.652;21.272;2023-05-10T00:59:37;22.26;43.10
71514;DHT22;59335;46.652;21.272;2023-05-10T01:02:40;22.26;43.04
71514;DHT22;59335;46.652;21.272;2023-05-10T01:05:43;22.30;43.04
71514;DHT22;59335;46.652;21.272;2023-05-10T01:08:45;22.24;43.07
71514;DHT22;59335;46.652;21.272;2023-05-10T01:11:49;22.21;43.05
71514;DHT22;59335;46.652;21.272;2023-05-10T01:14:53;22.27;43.02
71514;DHT22;59335;46.652;21.272;2023-05-10T01:17:56;22.23;43.01
71514;DHT22;59335;46.652;21.272;2023-05-10T01:21:08;22.24;43.01
71514;DHT22;59335;46.652;21.272;2023-05-10T01:34:12;22.24;42.94
71514;DHT22;59335;46.652;21.272;2023-05-10T01:37:25;22.23;42.99
71514;DHT22;59335;46.652;21.272;2023-05-10T01:40:57;22.23;42.93
71514;DHT22;59335;46.652;21.272;2023-05-10T01:44:14;22.20;42.95
71514;DHT22;59335;46.652;21.272;2023-05-10T01:50:38;22.17;42.93
71514;DHT22;59335;46.652;21.272;2023-05-10T01:53:42;22.20;42.96
71514;DHT22;59335;46.652;21.272;2023-05-10T01:56:49;22.21;42.87
71514;DHT22;59335;46.652;21.272;2023-05-10T01:59:53;22.21;42.91
71514;DHT22;59335;46.652;21.272;2023-05-10T02:02:58;22.20;42.93
71514;DHT22;59335;46.652;21.272;2023-05-10T02:06:03;22.21;42.90
71514;DHT22;59335;46.652;21.272;2023-05-10T02:09:07;22.20;42.91
71514;DHT22;59335;46.652;21.272;2023-05-10T02:12:13;22.24;42.83
71514;DHT22;59335;46.652;21.272;2023-05-10T02:15:20;22.23;42.80
71514;DHT22;59335;46.652;21.272;2023-05-10T02:18:25;22.20;42.86
71514;DHT22;59335;46.652;21.272;2023-05-10T02:21:31;22.20;42.79
71514;DHT22;59335;46.652;21.272;2023-05-10T02:24:36;22.20;42.78
71514;DHT22;59335;46.652;21.272;2023-05-10T02:27:41;22.17;42.79
71514;DHT22;59335;46.652;21.272;2023-05-10T02:30:45;22.19;42.78
71514;DHT22;59335;46.652;21.272;2023-05-10T02:33:49;22.16;42.84
71514;DHT22;59335;46.652;21.272;2023-05-10T02:36:53;22.17;42.77
71514;DHT22;59335;46.652;21.272;2023-05-10T02:39:57;22.17;42.80
71514;DHT22;59335;46.652;21.272;2023-05-10T02:43:01;22.19;42.76
71514;DHT22;59335;46.652;21.272;2023-05-10T02:46:06;22.16;42.76
71514;DHT22;59335;46.652;21.272;2023-05-10T02:49:10;22.17;42.73
71514;DHT22;59335;46.652;21.272;2023-05-10T02:52:18;22.16;42.72
71514;DHT22;59335;46.652;21.272;2023-05-10T02:55:26;22.17;42.69
71514;DHT22;59335;46.652;21.272;2023-05-10T02:58:30;22.14;42.72
71514;DHT22;59335;46.652;21.272;2023-05-10T03:01:33;22.20;42.67
71514;DHT22;59335;46.652;21.272;2023-05-10T03:04:36;22.16;42.70
71514;DHT22;59335;46.652;21.272;2023-05-10T03:07:38;22.13;42.74
71514;DHT22;59335;46.652;21.272;2023-05-10T03:10:50;22.12;42.72
71514;DHT22;59335;46.652;21.272;2023-05-10T03:17:35;22.13;42.61
71514;DHT22;59335;46.652;21.272;2023-05-10T03:20:42;22.14;42.61
71514;DHT22;59335;46.652;21.272;2023-05-10T03:23:54;22.14;42.64
71514;DHT22;59335;46.652;21.272;2023-05-10T03:27:01;22.14;42.62
71514;DHT22;59335;46.652;21.272;2023-05-10T03:30:08;22.14;42.64
71514;DHT22;59335;46.652;21.272;2023-05-10T03:33:13;22.13;42.64
71514;DHT22;59335;46.652;21.272;2023-05-10T03:36:19;22.12;42.61
71514;DHT22;59335;46.652;21.272;2023-05-10T03:39:22;22.09;42.63
71514;DHT22;59335;46.652;21.272;2023-05-10T03:42:29;22.12;42.60
71514;DHT22;59335;46.652;21.272;2023-05-10T03:45:31;22.14;42.59
71514;DHT22;59335;46.652;21.272;2023-05-10T03:48:34;22.16;42.50
71514;DHT22;59335;46.652;21.272;2023-05-10T03:51:37;22.16;42.50
71514;DHT22;59335;46.652;21.272;2023-05-10T03:54:40;22.14;42.54
71514;DHT22;59335;46.652;21.272;2023-05-10T03:57:42;22.12;42.54
71514;DHT22;59335;46.652;21.272;2023-05-10T04:00:45;22.16;42.49
71514;DHT22;59335;46.652;21.272;2023-05-10T04:03:49;22.16;42.46
71514;DHT22;59335;46.652;21.272;2023-05-10T04:06:52;22.14;42.53
71514;DHT22;59335;46.652;21.272;2023-05-10T04:09:54;22.13;42.58
71514;DHT22;59335;46.652;21.272;2023-05-10T04:12:57;22.12;42.55
71514;DHT22;59335;46.652;21.272;2023-05-10T04:16:00;22.13;42.54
71514;DHT22;59335;46.652;21.272;2023-05-10T04:19:03;22.12;42.57
71514;DHT22;59335;46.652;21.272;2023-05-10T04:22:06;22.12;42.52
71514;DHT22;59335;46.652;21.272;2023-05-10T04:25:09;22.10;42.51
71514;DHT22;59335;46.652;21.272;2023-05-10T04:28:11;22.14;42.45
71514;DHT22;59335;46.652;21.272;2023-05-10T04:31:14;22.14;42.46
71514;DHT22;59335;46.652;21.272;2023-05-10T04:34:17;22.13;42.46
71514;DHT22;59335;46.652;21.272;2023-05-10T04:37:19;22.27;42.20
71514;DHT22;59335;46.652;21.272;2023-05-10T04:40:23;22.37;41.98
71514;DHT22;59335;46.652;21.272;2023-05-10T04:43:26;22.44;41.76
71514;DHT22;59335;46.652;21.272;2023-05-10T04:46:29;22.39;41.87
71514;DHT22;59335;46.652;21.272;2023-05-10T04:49:31;22.33;42.07
71514;DHT22;59335;46.652;21.272;2023-05-10T04:52:34;22.33;41.96
71514;DHT22;59335;46.652;21.272;2023-05-10T04:55:37;22.32;41.91
71514;DHT22;59335;46.652;21.272;2023-05-10T04:58:40;22.33;41.90
71514;DHT22;59335;46.652;21.272;2023-05-10T05:01:43;22.39;41.91
71514;DHT22;59335;46.652;21.272;2023-05-10T05:04:45;22.37;41.90
71514;DHT22;59335;46.652;21.272;2023-05-10T05:07:48;22.36;41.84
71514;DHT22;59335;46.652;21.272;2023-05-10T05:10:51;22.39;41.77
71514;DHT22;59335;46.652;21.272;2023-05-10T05:13:54;22.40;41.74
71514;DHT22;59335;46.652;21.272;2023-05-10T05:16:58;22.43;41.64
71514;DHT22;59335;46.652;21.272;2023-05-10T05:20:01;22.51;41.46
71514;DHT22;59335;46.652;21.272;2023-05-10T05:23:05;22.58;41.28
71514;DHT22;59335;46.652;21.272;2023-05-10T05:26:16;22.61;41.23
71514;DHT22;59335;46.652;21.272;2023-05-10T05:29:23;22.69;41.18
71514;DHT22;59335;46.652;21.272;2023-05-10T05:32:26;22.75;41.12
71514;DHT22;59335;46.652;21.272;2023-05-10T05:35:29;22.76;41.37
71514;DHT22;59335;46.652;21.272;2023-05-10T05:38:32;22.79;41.40
71514;DHT22;59335;46.652;21.272;2023-05-10T05:41:35;22.87;41.48
71514;DHT22;59335;46.652;21.272;2023-05-10T05:44:37;22.91;41.46
71514;DHT22;59335;46.652;21.272;2023-05-10T05:47:40;22.95;41.52
71514;DHT22;59335;46.652;21.272;2023-05-10T05:50:43;22.95;41.49
71514;DHT22;59335;46.652;21.272;2023-05-10T05:53:46;23.02;41.82
71514;DHT22;59335;46.652;21.272;2023-05-10T05:56:48;23.06;42.04
71514;DHT22;59335;46.652;21.272;2023-05-10T05:59:52;23.08;42.08
71514;DHT22;59335;46.652;21.272;2023-05-10T06:02:55;23.13;42.24
71514;DHT22;59335;46.652;21.272;2023-05-10T06:05:58;23.16;42.44
71514;DHT22;59335;46.652;21.272;2023-05-10T06:09:01;23.16;42.34
71514;DHT22;59335;46.652;21.272;2023-05-10T06:12:04;23.20;42.35
71514;DHT22;59335;46.652;21.272;2023-05-10T06:15:08;23.23;42.40
71514;DHT22;59335;46.652;21.272;2023-05-10T06:18:11;23.23;42.38
71514;DHT22;59335;46.652;21.272;2023-05-10T06:21:17;23.24;42.39
71514;DHT22;59335;46.652;21.272;2023-05-10T06:24:31;23.29;42.42
71514;DHT22;59335;46.652;21.272;2023-05-10T06:27:34;23.30;42.23
71514;DHT22;59335;46.652;21.272;2023-05-10T06:30:37;23.33;42.35
71514;DHT22;59335;46.652;21.272;2023-05-10T06:33:39;23.33;42.36
71514;DHT22;59335;46.652;21.272;2023-05-10T06:36:44;23.34;42.43
71514;DHT22;59335;46.652;21.272;2023-05-10T06:39:47;23.39;42.41
71514;DHT22;59335;46.652;21.272;2023-05-10T06:42:51;23.40;42.44
71514;DHT22;59335;46.652;21.272;2023-05-10T06:46:00;23.43;42.44
71514;DHT22;59335;46.652;21.272;2023-05-10T06:49:11;23.42;42.55
71514;DHT22;59335;46.652;21.272;2023-05-10T06:52:14;23.46;42.53
71514;DHT22;59335;46.652;21.272;2023-05-10T06:55:48;23.50;42.52
71514;DHT22;59335;46.652;21.272;2023-05-10T06:59:18;23.54;42.76
71514;DHT22;59335;46.652;21.272;2023-05-10T07:02:35;23.60;42.54
71514;DHT22;59335;46.652;21.272;2023-05-10T07:05:39;23.66;42.56
71514;DHT22;59335;46.652;21.272;2023-05-10T07:08:43;23.69;42.68
71514;DHT22;59335;46.652;21.272;2023-05-10T07:11:46;23.74;42.81
71514;DHT22;59335;46.652;21.272;2023-05-10T07:14:51;23.77;42.66
71514;DHT22;59335;46.652;21.272;2023-05-10T07:17:56;23.80;42.58
71514;DHT22;59335;46.652;21.272;2023-05-10T07:20:59;23.81;42.72
71514;DHT22;59335;46.652;21.272;2023-05-10T07:24:02;23.81;42.77
71514;DHT22;59335;46.652;21.272;2023-05-10T07:27:05;23.87;42.76
71514;DHT22;59335;46.652;21.272;2023-05-10T07:30:09;23.80;42.89
71514;DHT22;59335;46.652;21.272;2023-05-10T07:33:13;23.84;42.94
71514;DHT22;59335;46.652;21.272;2023-05-10T07:36:17;23.88;42.94
71514;DHT22;59335;46.652;21.272;2023-05-10T07:39:19;23.87;42.94
71514;DHT22;59335;46.652;21.272;2023-05-10T07:42:30;23.93;42.93
71514;DHT22;59335;46.652;21.272;2023-05-10T07:45:33;23.96;42.94
71514;DHT22;59335;46.652;21.272;2023-05-10T07:48:37;23.96;42.76
71514;DHT22;59335;46.652;21.272;2023-05-10T07:51:40;23.97;42.70
71514;DHT22;59335;46.652;21.272;2023-05-10T07:54:42;23.98;42.73
71514;DHT22;59335;46.652;21.272;2023-05-10T07:57:45;23.98;42.75
71514;DHT22;59335;46.652;21.272;2023-05-10T08:00:48;24.02;42.99
71514;DHT22;59335;46.652;21.272;2023-05-10T08:03:55;24.02;42.89
71514;DHT22;59335;46.652;21.272;2023-05-10T08:07:10;24.01;42.76
71514;DHT22;59335;46.652;21.272;2023-05-10T08:10:34;24.01;42.47
71514;DHT22;59335;46.652;21.272;2023-05-10T08:13:37;24.00;42.33
71514;DHT22;59335;46.652;21.272;2023-05-10T08:16:40;24.00;42.30
71514;DHT22;59335;46.652;21.272;2023-05-10T08:19:42;24.00;42.34
71514;DHT22;59335;46.652;21.272;2023-05-10T08:22:45;24.01;42.20
71514;DHT22;59335;46.652;21.272;2023-05-10T08:25:51;24.02;42.12
71514;DHT22;59335;46.652;21.272;2023-05-10T08:28:53;24.00;42.10
71514;DHT22;59335;46.652;21.272;2023-05-10T08:31:58;24.01;42.16
71514;DHT22;59335;46.652;21.272;2023-05-10T08:35:01;24.00;42.16
71514;DHT22;59335;46.652;21.272;2023-05-10T08:38:05;24.02;42.16
71514;DHT22;59335;46.652;21.272;2023-05-10T08:41:11;24.05;42.12
71514;DHT22;59335;46.652;21.272;2023-05-10T08:44:13;24.08;42.18
71514;DHT22;59335;46.652;21.272;2023-05-10T08:47:18;24.04;42.32
71514;DHT22;59335;46.652;21.272;2023-05-10T08:50:22;24.01;42.64
71514;DHT22;59335;46.652;21.272;2023-05-10T08:53:27;24.02;42.54
71514;DHT22;59335;46.652;21.272;2023-05-10T08:56:34;23.96;40.37
71514;DHT22;59335;46.652;21.272;2023-05-10T08:59:46;23.80;38.08
71514;DHT22;59335;46.652;21.272;2023-05-10T09:03:00;23.40;36.93
71514;DHT22;59335;46.652;21.272;2023-05-10T09:06:05;23.36;36.77
71514;DHT22;59335;46.652;21.272;2023-05-10T09:09:08;23.27;36.63
71514;DHT22;59335;46.652;21.272;2023-05-10T09:12:12;23.23;36.28
71514;DHT22;59335;46.652;21.272;2023-05-10T09:15:18;23.24;36.03
71514;DHT22;59335;46.652;21.272;2023-05-10T09:18:23;23.11;36.21
71514;DHT22;59335;46.652;21.272;2023-05-10T09:21:29;23.06;36.21
71514;DHT22;59335;46.652;21.272;2023-05-10T09:24:33;23.08;36.06
71514;DHT22;59335;46.652;21.272;2023-05-10T09:27:36;23.11;35.58
71514;DHT22;59335;46.652;21.272;2023-05-10T09:30:41;23.20;37.29
71514;DHT22;59335;46.652;21.272;2023-05-10T09:33:54;23.23;37.40
71514;DHT22;59335;46.652;21.272;2023-05-10T09:37:00;23.27;36.21
71514;DHT22;59335;46.652;21.272;2023-05-10T09:40:08;23.12;35.19
71514;DHT22;59335;46.652;21.272;2023-05-10T09:43:14;23.09;35.44
71514;DHT22;59335;46.652;21.272;2023-05-10T09:46:17;23.02;35.14
71514;DHT22;59335;46.652;21.272;2023-05-10T09:49:24;22.84;33.96
71514;DHT22;59335;46.652;21.272;2023-05-10T09:52:49;22.69;33.92
71514;DHT22;59335;46.652;21.272;2023-05-10T09:55:53;22.71;33.47
71514;DHT22;59335;46.652;21.272;2023-05-10T09:59:14;22.82;34.10
71514;DHT22;59335;46.652;21.272;2023-05-10T10:02:18;22.78;33.00
71514;DHT22;59335;46.652;21.272;2023-05-10T10:05:33;22.69;33.11
71514;DHT22;59335;46.652;21.272;2023-05-10T10:08:36;22.65;32.53
71514;DHT22;59335;46.652;21.272;2023-05-10T10:11:40;22.61;32.42
71514;DHT22;59335;46.652;21.272;2023-05-10T10:14:43;22.75;32.83
71514;DHT22;59335;46.652;21.272;2023-05-10T10:17:48;22.67;32.31
71514;DHT22;59335;46.652;21.272;2023-05-10T10:20:52;22.65;31.83
71514;DHT22;59335;46.652;21.272;2023-05-10T10:23:56;22.64;31.94
71514;DHT22;59335;46.652;21.272;2023-05-10T10:27:12;22.61;32.00
71514;DHT22;59335;46.652;21.272;2023-05-10T10:34:00;22.58;32.25
71514;DHT22;59335;46.652;21.272;2023-05-10T10:37:06;22.61;32.10
71514;DHT22;59335;46.652;21.272;2023-05-10T10:40:30;22.63;31.73
71514;DHT22;59335;46.652;21.272;2023-05-10T10:43:36;22.67;31.75
71514;DHT22;59335;46.652;21.272;2023-05-10T10:50:06;22.61;32.83
71514;DHT22;59335;46.652;21.272;2023-05-10T10:53:13;22.69;33.27
71514;DHT22;59335;46.652;21.272;2023-05-10T10:56:23;22.81;34.15
71514;DHT22;59335;46.652;21.272;2023-05-10T10:59:27;22.90;34.99
71514;DHT22;59335;46.652;21.272;2023-05-10T11:02:53;22.98;35.30
71514;DHT22;59335;46.652;21.272;2023-05-10T11:06:00;23.02;35.35
71514;DHT22;59335;46.652;21.272;2023-05-10T11:09:11;23.08;35.86
71514;DHT22;59335;46.652;21.272;2023-05-10T11:12:14;23.12;35.95
71514;DHT22;59335;46.652;21.272;2023-05-10T11:15:19;23.18;36.42
71514;DHT22;59335;46.652;21.272;2023-05-10T11:18:28;23.19;36.39
71514;DHT22;59335;46.652;21.272;2023-05-10T11:21:32;23.20;36.68
71514;DHT22;59335;46.652;21.272;2023-05-10T11:24:35;23.19;36.70
71514;DHT22;59335;46.652;21.272;2023-05-10T11:27:42;23.20;36.92
71514;DHT22;59335;46.652;21.272;2023-05-10T11:30:45;23.23;37.01
71514;DHT22;59335;46.652;21.272;2023-05-10T11:33:53;23.24;37.08
71514;DHT22;59335;46.652;21.272;2023-05-10T11:36:57;23.27;37.11
71514;DHT22;59335;46.652;21.272;2023-05-10T11:40:08;23.27;37.16
71514;DHT22;59335;46.652;21.272;2023-05-10T11:43:13;23.30;37.34
71514;DHT22;59335;46.652;21.272;2023-05-10T11:46:17;23.30;37.38
71514;DHT22;59335;46.652;21.272;2023-05-10T11:49:23;23.29;37.46
71514;DHT22;59335;46.652;21.272;2023-05-10T11:52:27;23.29;37.46
71514;DHT22;59335;46.652;21.272;2023-05-10T11:55:33;23.30;37.53
71514;DHT22;59335;46.652;21.272;2023-05-10T11:58:38;23.30;37.56
71514;DHT22;59335;46.652;21.272;2023-05-10T12:01:41;23.30;37.71
71514;DHT22;59335;46.652;21.272;2023-05-10T12:08:45;23.29;37.70
71514;DHT22;59335;46.652;21.272;2023-05-10T12:11:48;23.27;37.93
71514;DHT22;59335;46.652;21.272;2023-05-10T12:14:51;23.27;37.93
71514;DHT22;59335;46.652;21.272;2023-05-10T12:17:54;23.29;37.94
71514;DHT22;59335;46.652;21.272;2023-05-10T12:21:03;23.27;38.01
71514;DHT22;59335;46.652;21.272;2023-05-10T12:24:07;23.27;38.07
71514;DHT22;59335;46.652;21.272;2023-05-10T12:27:11;23.26;38.11
71514;DHT22;59335;46.652;21.272;2023-05-10T12:30:34;23.24;37.98
71514;DHT22;59335;46.652;21.272;2023-05-10T12:33:44;23.24;38.09
71514;DHT22;59335;46.652;21.272;2023-05-10T12:36:51;23.23;38.19
71514;DHT22;59335;46.652;21.272;2023-05-10T12:39:54;23.23;38.27
71514;DHT22;59335;46.652;21.272;2023-05-10T12:42:56;23.22;38.17
71514;DHT22;59335;46.652;21.272;2023-05-10T12:46:07;23.23;38.24
71514;DHT22;59335;46.652;21.272;2023-05-10T12:49:10;23.22;38.38
71514;DHT22;59335;46.652;21.272;2023-05-10T12:52:13;23.20;38.34
71514;DHT22;59335;46.652;21.272;2023-05-10T12:55:15;23.16;38.10
71514;DHT22;59335;46.652;21.272;2023-05-10T12:58:18;23.19;38.30
71514;DHT22;59335;46.652;21.272;2023-05-10T13:01:36;23.20;38.34
71514;DHT22;59335;46.652;21.272;2023-05-10T13:04:40;23.18;38.45
71514;DHT22;59335;46.652;21.272;2023-05-10T13:07:42;23.19;38.52
71514;DHT22;59335;46.652;21.272;2023-05-10T13:10:47;23.20;38.46
71514;DHT22;59335;46.652;21.272;2023-05-10T13:13:53;23.19;38.47
71514;DHT22;59335;46.652;21.272;2023-05-10T13:16:56;23.20;38.62
71514;DHT22;59335;46.652;21.272;2023-05-10T13:19:58;23.15;38.47
71514;DHT22;59335;46.652;21.272;2023-05-10T13:23:01;23.20;38.69
71514;DHT22;59335;46.652;21.272;2023-05-10T13:26:05;23.16;38.71
71514;DHT22;59335;46.652;21.272;2023-05-10T13:29:09;23.18;38.78
71514;DHT22;59335;46.652;21.272;2023-05-10T13:32:13;23.20;38.73
71514;DHT22;59335;46.652;21.272;2023-05-10T13:35:17;23.16;38.70
71514;DHT22;59335;46.652;21.272;2023-05-10T13:38:20;23.15;38.78
71514;DHT22;59335;46.652;21.272;2023-05-10T13:41:23;23.16;38.78
71514;DHT22;59335;46.652;21.272;2023-05-10T13:44:26;23.13;38.72
71514;DHT22;59335;46.652;21.272;2023-05-10T13:47:30;23.18;38.70
71514;DHT22;59335;46.652;21.272;2023-05-10T13:50:33;23.16;38.74
71514;DHT22;59335;46.652;21.272;2023-05-10T13:53:36;23.15;38.52
71514;DHT22;59335;46.652;21.272;2023-05-10T13:56:39;23.13;38.71
71514;DHT22;59335;46.652;21.272;2023-05-10T13:59:46;23.13;38.71
71514;DHT22;59335;46.652;21.272;2023-05-10T14:02:49;23.15;38.84
71514;DHT22;59335;46.652;21.272;2023-05-10T14:05:52;23.13;38.86
71514;DHT22;59335;46.652;21.272;2023-05-10T14:08:56;23.13;38.98
71514;DHT22;59335;46.652;21.272;2023-05-10T14:11:59;23.13;38.90
71514;DHT22;59335;46.652;21.272;2023-05-10T14:15:01;23.12;38.97
71514;DHT22;59335;46.652;21.272;2023-05-10T14:18:04;23.12;38.78
71514;DHT22;59335;46.652;21.272;2023-05-10T14:21:07;23.13;38.71
71514;DHT22;59335;46.652;21.272;2023-05-10T14:24:10;23.11;38.58
71514;DHT22;59335;46.652;21.272;2023-05-10T14:27:12;23.09;38.61
71514;DHT22;59335;46.652;21.272;2023-05-10T14:30:15;23.09;38.52
71514;DHT22;59335;46.652;21.272;2023-05-10T14:33:18;23.08;38.76
71514;DHT22;59335;46.652;21.272;2023-05-10T14:36:21;23.02;45.45
71514;DHT22;59335;46.652;21.272;2023-05-10T14:39:24;22.99;45.64
71514;DHT22;59335;46.652;21.272;2023-05-10T14:42:27;23.03;45.50
71514;DHT22;59335;46.652;21.272;2023-05-10T14:45:31;22.95;47.35
71514;DHT22;59335;46.652;21.272;2023-05-10T14:48:33;22.95;47.09
71514;DHT22;59335;46.652;21.272;2023-05-10T14:51:36;22.96;46.99
71514;DHT22;59335;46.652;21.272;2023-05-10T14:54:39;22.96;46.70
71514;DHT22;59335;46.652;21.272;2023-05-10T14:57:42;22.99;45.14
71514;DHT22;59335;46.652;21.272;2023-05-10T15:00:46;23.01;44.08
71514;DHT22;59335;46.652;21.272;2023-05-10T15:03:49;23.02;43.59
71514;DHT22;59335;46.652;21.272;2023-05-10T15:06:53;23.02;43.16
71514;DHT22;59335;46.652;21.272;2023-05-10T15:10:01;23.05;43.16
71514;DHT22;59335;46.652;21.272;2023-05-10T15:13:04;23.03;42.82
71514;DHT22;59335;46.652;21.272;2023-05-10T15:16:08;23.05;42.61
71514;DHT22;59335;46.652;21.272;2023-05-10T15:19:11;23.05;42.58
71514;DHT22;59335;46.652;21.272;2023-05-10T15:22:14;23.03;42.75
71514;DHT22;59335;46.652;21.272;2023-05-10T15:25:16;23.05;42.78
71514;DHT22;59335;46.652;21.272;2023-05-10T15:28:19;23.06;42.85
71514;DHT22;59335;46.652;21.272;2023-05-10T15:31:22;23.03;42.96
71514;DHT22;59335;46.652;21.272;2023-05-10T15:34:25;23.03;43.02
71514;DHT22;59335;46.652;21.272;2023-05-10T15:37:27;23.03;43.01
71514;DHT22;59335;46.652;21.272;2023-05-10T15:40:30;23.02;43.01
71514;DHT22;59335;46.652;21.272;2023-05-10T15:43:32;23.03;42.76
71514;DHT22;59335;46.652;21.272;2023-05-10T15:46:35;23.03;42.62
71514;DHT22;59335;46.652;21.272;2023-05-10T15:49:40;23.02;42.65
71514;DHT22;59335;46.652;21.272;2023-05-10T15:52:42;23.02;42.55
71514;DHT22;59335;46.652;21.272;2023-05-10T15:55:45;23.01;42.45
71514;DHT22;59335;46.652;21.272;2023-05-10T15:58:47;23.01;42.27
71514;DHT22;59335;46.652;21.272;2023-05-10T16:01:50;22.99;42.25
71514;DHT22;59335;46.652;21.272;2023-05-10T16:04:54;22.99;42.21
71514;DHT22;59335;46.652;21.272;2023-05-10T16:07:56;22.96;42.23
71514;DHT22;59335;46.652;21.272;2023-05-10T16:10:59;22.95;42.39
71514;DHT22;59335;46.652;21.272;2023-05-10T16:14:02;22.96;42.32
71514;DHT22;59335;46.652;21.272;2023-05-10T16:17:06;22.98;42.26
71514;DHT22;59335;46.652;21.272;2023-05-10T16:20:10;22.95;42.29
71514;DHT22;59335;46.652;21.272;2023-05-10T16:23:13;22.95;42.39
71514;DHT22;59335;46.652;21.272;2023-05-10T16:26:16;22.95;42.30
71514;DHT22;59335;46.652;21.272;2023-05-10T16:29:19;22.95;42.33
71514;DHT22;59335;46.652;21.272;2023-05-10T16:32:21;22.94;42.33
71514;DHT22;59335;46.652;21.272;2023-05-10T16:35:24;22.94;42.55
71514;DHT22;59335;46.652;21.272;2023-05-10T16:38:27;22.92;42.51
71514;DHT22;59335;46.652;21.272;2023-05-10T16:41:33;22.92;42.41
71514;DHT22;59335;46.652;21.272;2023-05-10T16:44:36;22.91;42.41
71514;DHT22;59335;46.652;21.272;2023-05-10T16:47:39;22.91;42.44
71514;DHT22;59335;46.652;21.272;2023-05-10T16:50:42;22.90;42.39
71514;DHT22;59335;46.652;21.272;2023-05-10T16:53:45;22.88;42.42
71514;DHT22;59335;46.652;21.272;2023-05-10T16:56:48;22.88;42.48
71514;DHT22;59335;46.652;21.272;2023-05-10T16:59:51;22.90;42.46
71514;DHT22;59335;46.652;21.272;2023-05-10T17:02:54;22.88;42.46
71514;DHT22;59335;46.652;21.272;2023-05-10T17:05:57;22.88;42.38
71514;DHT22;59335;46.652;21.272;2023-05-10T17:09:00;22.88;42.32
71514;DHT22;59335;46.652;21.272;2023-05-10T17:12:02;22.90;42.35
71514;DHT22;59335;46.652;21.272;2023-05-10T17:15:06;22.87;42.35
71514;DHT22;59335;46.652;21.272;2023-05-10T17:18:09;22.81;42.39
71514;DHT22;59335;46.652;21.272;2023-05-10T17:21:12;22.82;42.43
71514;DHT22;59335;46.652;21.272;2023-05-10T17:24:14;22.82;42.40
71514;DHT22;59335;46.652;21.272;2023-05-10T17:27:17;22.79;42.37
71514;DHT22;59335;46.652;21.272;2023-05-10T17:30:20;22.82;42.26
71514;DHT22;59335;46.652;21.272;2023-05-10T17:33:27;22.82;42.20
71514;DHT22;59335;46.652;21.272;2023-05-10T17:36:30;22.81;42.17
71514;DHT22;59335;46.652;21.272;2023-05-10T17:39:33;22.81;42.12
71514;DHT22;59335;46.652;21.272;2023-05-10T17:42:35;22.81;42.13
71514;DHT22;59335;46.652;21.272;2023-05-10T17:45:38;22.78;42.12
71514;DHT22;59335;46.652;21.272;2023-05-10T17:48:41;22.79;42.14
71514;DHT22;59335;46.652;21.272;2023-05-10T17:51:43;22.76;42.06
71514;DHT22;59335;46.652;21.272;2023-05-10T17:54:49;22.79;42.03
71514;DHT22;59335;46.652;21.272;2023-05-10T17:57:51;22.78;42.04
71514;DHT22;59335;46.652;21.272;2023-05-10T18:00:54;22.75;42.07
71514;DHT22;59335;46.652;21.272;2023-05-10T18:03:58;22.76;42.02
71514;DHT22;59335;46.652;21.272;2023-05-10T18:07:01;22.76;41.99
71514;DHT22;59335;46.652;21.272;2023-05-10T18:10:05;22.74;42.00
71514;DHT22;59335;46.652;21.272;2023-05-10T18:13:08;22.74;42.00
71514;DHT22;59335;46.652;21.272;2023-05-10T18:16:11;22.72;42.03
71514;DHT22;59335;46.652;21.272;2023-05-10T18:19:14;22.76;42.01
71514;DHT22;59335;46.652;21.272;2023-05-10T18:22:18;22.74;42.03
71514;DHT22;59335;46.652;21.272;2023-05-10T18:25:22;22.69;42.04
71514;DHT22;59335;46.652;21.272;2023-05-10T18:28:25;22.72;42.01
71514;DHT22;59335;46.652;21.272;2023-05-10T18:31:29;22.71;41.98
71514;DHT22;59335;46.652;21.272;2023-05-10T18:34:33;22.71;41.98
71514;DHT22;59335;46.652;21.272;2023-05-10T18:37:37;22.72;41.97
71514;DHT22;59335;46.652;21.272;2023-05-10T18:40:41;22.71;42.00
71514;DHT22;59335;46.652;21.272;2023-05-10T18:43:44;22.69;41.96
71514;DHT22;59335;46.652;21.272;2023-05-10T18:46:48;22.69;41.97
71514;DHT22;59335;46.652;21.272;2023-05-10T18:49:56;22.72;41.98
71514;DHT22;59335;46.652;21.272;2023-05-10T18:53:00;22.68;41.99
71514;DHT22;59335;46.652;21.272;2023-05-10T18:56:04;22.69;41.96
71514;DHT22;59335;46.652;21.272;2023-05-10T18:59:08;22.72;41.92
71514;DHT22;59335;46.652;21.272;2023-05-10T19:02:11;22.68;41.93
71514;DHT22;59335;46.652;21.272;2023-05-10T19:05:16;22.68;41.92
71514;DHT22;59335;46.652;21.272;2023-05-10T19:08:21;22.68;41.92
71514;DHT22;59335;46.652;21.272;2023-05-10T19:11:25;22.67;41.95
71514;DHT22;59335;46.652;21.272;2023-05-10T19:14:30;22.67;41.95
71514;DHT22;59335;46.652;21.272;2023-05-10T19:17:35;22.69;41.92
71514;DHT22;59335;46.652;21.272;2023-05-10T19:20:43;22.65;41.97
71514;DHT22;59335;46.652;21.272;2023-05-10T19:23:48;22.68;41.94
71514;DHT22;59335;46.652;21.272;2023-05-10T19:26:52;22.67;41.88
71514;DHT22;59335;46.652;21.272;2023-05-10T19:29:59;22.65;41.89
71514;DHT22;59335;46.652;21.272;2023-05-10T19:33:04;22.65;41.82
71514;DHT22;59335;46.652;21.272;2023-05-10T19:36:08;22.67;41.81